sensor_id;sensor_type;location;lat;lon;timestamp;temperature;humidity
39219;DHT22;24934;52.752;6.964;2022-10-22T00:00:38;12.00;99.90
39219;DHT22;24934;52.752;6.964;2022-10-22T00:03:04;12.00;99.90
39219;DHT22;24934;52.752;6.964;2022-10-22T00:05:29;12.00;99.90
39219;DHT22;24934;52.752;6.964;2022-10-22T00:07:55;11.90;99.90
39219;DHT22;24934;52.752;6.964;2022-10-22T00:10:21;11.90;99.90
39219;DHT22;24934;52.752;6.964;2022-10-22T00:12:46;11.90;99.90
39219;DHT22;24934;52.752;6.964;2022-10-22T00:15:12;11.90;99.90
39219;DHT22;24934;52.752;6.964;2022-10-22T00:17:37;11.90;99.90
39219;DHT22;24934;52.752;6.964;2022-10-22T00:20:03;11.90;99.90
39219;DHT22;24934;52.752;6.964;2022-10-22T00:22:29;11.90;99.90
39219;DHT22;24934;52.752;6.964;2022-10-22T00:24:55;12.00;99.90
39219;DHT22;24934;52.752;6.964;2022-10-22T00:27:20;11.90;99.90
39219;DHT22;24934;52.752;6.964;2022-10-22T00:29:46;11.90;99.90
39219;DHT22;24934;52.752;6.964;2022-10-22T00:32:11;11.90;99.90
39219;DHT22;24934;52.752;6.964;2022-10-22T00:34:37;11.90;99.90
39219;DHT22;24934;52.752;6.964;2022-10-22T00:37:03;11.90;99.90
39219;DHT22;24934;52.752;6.964;2022-10-22T00:39:28;11.90;99.90
39219;DHT22;24934;52.752;6.964;2022-10-22T00:41:56;11.90;99.90
39219;DHT22;24934;52.752;6.964;2022-10-22T00:47:27;11.90;99.90
39219;DHT22;24934;52.752;6.964;2022-10-22T00:49:55;11.80;99.90
39219;DHT22;24934;52.752;6.964;2022-10-22T00:52:22;11.90;99.90
39219;DHT22;24934;52.752;6.964;2022-10-22T00:54:48;11.80;99.90
39219;DHT22;24934;52.752;6.964;2022-10-22T00:57:15;11.80;99.90
39219;DHT22;24934;52.752;6.964;2022-10-22T00:59:42;11.80;99.90
39219;DHT22;24934;52.752;6.964;2022-10-22T01:02:07;11.80;99.90
39219;DHT22;24934;52.752;6.964;2022-10-22T01:04:33;11.80;99.90
39219;DHT22;24934;52.752;6.964;2022-10-22T01:06:58;11.80;99.90
39219;DHT22;24934;52.752;6.964;2022-10-22T01:12:42;11.80;99.90
39219;DHT22;24934;52.752;6.964;2022-10-22T01:21:11;11.80;99.90
39219;DHT22;24934;52.752;6.964;2022-10-22T01:26:39;11.70;99.90
39219;DHT22;24934;52.752;6.964;2022-10-22T01:29:23;11.60;99.90
39219;DHT22;24934;52.752;6.964;2022-10-22T01:32:00;11.50;99.90
39219;DHT22;24934;52.752;6.964;2022-10-22T01:34:27;11.50;99.90
39219;DHT22;24934;52.752;6.964;2022-10-22T01:36:54;11.50;99.90
39219;DHT22;24934;52.752;6.964;2022-10-22T01:39:22;11.50;99.90
39219;DHT22;24934;52.752;6.964;2022-10-22T01:41:48;11.60;99.90
39219;DHT22;24934;52.752;6.964;2022-10-22T01:44:34;11.50;99.90
39219;DHT22;24934;52.752;6.964;2022-10-22T01:47:16;11.50;99.90
39219;DHT22;24934;52.752;6.964;2022-10-22T01:52:47;11.60;99.90
39219;DHT22;24934;52.752;6.964;2022-10-22T02:00:36;11.70;99.90
39219;DHT22;24934;52.752;6.964;2022-10-22T02:03:13;11.60;99.90
39219;DHT22;24934;52.752;6.964;2022-10-22T02:05:46;11.60;99.90
39219;DHT22;24934;52.752;6.964;2022-10-22T02:08:19;11.60;99.90
39219;DHT22;24934;52.752;6.964;2022-10-22T02:10:47;11.50;99.90
39219;DHT22;24934;52.752;6.964;2022-10-22T02:13:22;11.50;99.90
39219;DHT22;24934;52.752;6.964;2022-10-22T02:15:51;11.40;99.90
39219;DHT22;24934;52.752;6.964;2022-10-22T02:18:19;11.40;99.90
39219;DHT22;24934;52.752;6.964;2022-10-22T02:20:47;11.40;99.90
39219;DHT22;24934;52.752;6.964;2022-10-22T02:23:14;11.40;99.90
39219;DHT22;24934;52.752;6.964;2022-10-22T02:25:43;11.30;99.90
39219;DHT22;24934;52.752;6.964;2022-10-22T02:28:21;11.40;99.90
39219;DHT22;24934;52.752;6.964;2022-10-22T02:30:55;11.40;99.90
39219;DHT22;24934;52.752;6.964;2022-10-22T02:33:33;11.40;99.90
39219;DHT22;24934;52.752;6.964;2022-10-22T02:36:01;11.40;99.90
39219;DHT22;24934;52.752;6.964;2022-10-22T02:38:28;11.40;99.90
39219;DHT22;24934;52.752;6.964;2022-10-22T02:40:54;11.40;99.90
39219;DHT22;24934;52.752;6.964;2022-10-22T02:43:23;11.40;99.90
39219;DHT22;24934;52.752;6.964;2022-10-22T02:45:49;11.40;99.90
39219;DHT22;24934;52.752;6.964;2022-10-22T02:48:14;11.40;99.90
39219;DHT22;24934;52.752;6.964;2022-10-22T02:50:40;11.40;99.90
39219;DHT22;24934;52.752;6.964;2022-10-22T02:53:06;11.40;99.90
39219;DHT22;24934;52.752;6.964;2022-10-22T02:55:31;11.40;99.90
39219;DHT22;24934;52.752;6.964;2022-10-22T02:57:57;11.30;99.90
39219;DHT22;24934;52.752;6.964;2022-10-22T03:00:22;11.30;99.90
39219;DHT22;24934;52.752;6.964;2022-10-22T03:02:48;11.30;99.90
39219;DHT22;24934;52.752;6.964;2022-10-22T03:05:13;11.30;99.90
39219;DHT22;24934;52.752;6.964;2022-10-22T03:07:39;11.40;99.90
39219;DHT22;24934;52.752;6.964;2022-10-22T03:10:05;11.30;99.90
39219;DHT22;24934;52.752;6.964;2022-10-22T03:12:30;11.30;99.90
39219;DHT22;24934;52.752;6.964;2022-10-22T03:14:56;11.40;99.90
39219;DHT22;24934;52.752;6.964;2022-10-22T03:17:22;11.40;99.90
39219;DHT22;24934;52.752;6.964;2022-10-22T03:19:47;11.30;99.90
39219;DHT22;24934;52.752;6.964;2022-10-22T03:22:26;11.20;99.90
39219;DHT22;24934;52.752;6.964;2022-10-22T03:24:55;11.20;99.90
39219;DHT22;24934;52.752;6.964;2022-10-22T03:27:23;11.20;99.90
39219;DHT22;24934;52.752;6.964;2022-10-22T03:29:50;11.10;99.90
39219;DHT22;24934;52.752;6.964;2022-10-22T03:32:16;11.20;99.90
39219;DHT22;24934;52.752;6.964;2022-10-22T03:34:42;11.20;99.90
39219;DHT22;24934;52.752;6.964;2022-10-22T03:37:07;11.20;99.90
39219;DHT22;24934;52.752;6.964;2022-10-22T03:39:34;11.20;99.90
39219;DHT22;24934;52.752;6.964;2022-10-22T03:42:01;11.30;99.90
39219;DHT22;24934;52.752;6.964;2022-10-22T03:44:27;11.30;99.90
39219;DHT22;24934;52.752;6.964;2022-10-22T03:46:53;11.30;99.90
39219;DHT22;24934;52.752;6.964;2022-10-22T03:49:19;11.40;99.90
39219;DHT22;24934;52.752;6.964;2022-10-22T03:51:45;11.40;99.90
39219;DHT22;24934;52.752;6.964;2022-10-22T03:54:10;11.40;99.90
39219;DHT22;24934;52.752;6.964;2022-10-22T03:56:36;11.40;99.90
39219;DHT22;24934;52.752;6.964;2022-10-22T03:59:02;11.30;99.90
39219;DHT22;24934;52.752;6.964;2022-10-22T04:01:29;11.30;99.90
39219;DHT22;24934;52.752;6.964;2022-10-22T04:03:57;11.30;99.90
39219;DHT22;24934;52.752;6.964;2022-10-22T04:06:22;11.30;99.90
39219;DHT22;24934;52.752;6.964;2022-10-22T04:08:48;11.20;99.90
39219;DHT22;24934;52.752;6.964;2022-10-22T04:11:14;11.20;99.90
39219;DHT22;24934;52.752;6.964;2022-10-22T04:13:40;11.20;99.90
39219;DHT22;24934;52.752;6.964;2022-10-22T04:18:39;11.10;99.90
39219;DHT22;24934;52.752;6.964;2022-10-22T04:21:09;11.00;99.90
39219;DHT22;24934;52.752;6.964;2022-10-22T04:23:35;11.10;99.90
39219;DHT22;24934;52.752;6.964;2022-10-22T04:26:04;11.10;99.90
39219;DHT22;24934;52.752;6.964;2022-10-22T04:28:30;11.10;99.90
39219;DHT22;24934;52.752;6.964;2022-10-22T04:30:56;11.10;99.90
39219;DHT22;24934;52.752;6.964;2022-10-22T04:33:21;11.10;99.90
39219;DHT22;24934;52.752;6.964;2022-10-22T04:35:47;11.10;99.90
39219;DHT22;24934;52.752;6.964;2022-10-22T04:38:13;11.00;99.90
39219;DHT22;24934;52.752;6.964;2022-10-22T04:40:39;11.00;99.90
39219;DHT22;24934;52.752;6.964;2022-10-22T04:43:04;10.90;99.90
39219;DHT22;24934;52.752;6.964;2022-10-22T04:45:32;10.80;99.90
39219;DHT22;24934;52.752;6.964;2022-10-22T04:47:57;10.90;99.90
39219;DHT22;24934;52.752;6.964;2022-10-22T04:50:23;10.90;99.90
39219;DHT22;24934;52.752;6.964;2022-10-22T04:52:49;10.90;99.90
39219;DHT22;24934;52.752;6.964;2022-10-22T04:55:14;11.00;99.90
39219;DHT22;24934;52.752;6.964;2022-10-22T04:57:40;11.00;99.90
39219;DHT22;24934;52.752;6.964;2022-10-22T05:00:06;11.00;99.90
39219;DHT22;24934;52.752;6.964;2022-10-22T05:02:32;11.10;99.90
39219;DHT22;24934;52.752;6.964;2022-10-22T05:04:57;11.10;99.90
39219;DHT22;24934;52.752;6.964;2022-10-22T05:07:23;11.10;99.90
39219;DHT22;24934;52.752;6.964;2022-10-22T05:09:49;11.10;99.90
39219;DHT22;24934;52.752;6.964;2022-10-22T05:12:15;11.10;99.90
39219;DHT22;24934;52.752;6.964;2022-10-22T05:14:40;11.00;99.90
39219;DHT22;24934;52.752;6.964;2022-10-22T05:17:06;11.00;99.90
39219;DHT22;24934;52.752;6.964;2022-10-22T05:19:31;10.90;99.90
39219;DHT22;24934;52.752;6.964;2022-10-22T05:21:59;11.00;99.90
39219;DHT22;24934;52.752;6.964;2022-10-22T05:24:26;10.90;99.90
39219;DHT22;24934;52.752;6.964;2022-10-22T05:26:54;10.90;99.90
39219;DHT22;24934;52.752;6.964;2022-10-22T05:29:21;10.90;99.90
39219;DHT22;24934;52.752;6.964;2022-10-22T05:31:47;10.80;99.90
39219;DHT22;24934;52.752;6.964;2022-10-22T05:34:13;10.80;99.90
39219;DHT22;24934;52.752;6.964;2022-10-22T05:36:38;10.80;99.90
39219;DHT22;24934;52.752;6.964;2022-10-22T05:39:04;10.80;99.90
39219;DHT22;24934;52.752;6.964;2022-10-22T05:41:32;10.80;99.90
39219;DHT22;24934;52.752;6.964;2022-10-22T05:43:58;10.70;99.90
39219;DHT22;24934;52.752;6.964;2022-10-22T05:46:26;10.80;99.90
39219;DHT22;24934;52.752;6.964;2022-10-22T05:48:58;10.90;99.90
39219;DHT22;24934;52.752;6.964;2022-10-22T05:51:26;10.90;99.90
39219;DHT22;24934;52.752;6.964;2022-10-22T05:53:54;10.80;99.90
39219;DHT22;24934;52.752;6.964;2022-10-22T05:56:21;10.90;99.90
39219;DHT22;24934;52.752;6.964;2022-10-22T05:58:47;10.80;99.90
39219;DHT22;24934;52.752;6.964;2022-10-22T06:03:41;10.90;99.90
39219;DHT22;24934;52.752;6.964;2022-10-22T06:06:30;10.90;99.90
39219;DHT22;24934;52.752;6.964;2022-10-22T06:09:04;10.90;99.90
39219;DHT22;24934;52.752;6.964;2022-10-22T06:11:30;10.90;99.90
39219;DHT22;24934;52.752;6.964;2022-10-22T06:13:56;10.90;99.90
39219;DHT22;24934;52.752;6.964;2022-10-22T06:16:22;10.90;99.90
39219;DHT22;24934;52.752;6.964;2022-10-22T06:18:47;10.90;99.90
39219;DHT22;24934;52.752;6.964;2022-10-22T06:21:14;10.80;99.90
39219;DHT22;24934;52.752;6.964;2022-10-22T06:23:42;10.80;99.90
39219;DHT22;24934;52.752;6.964;2022-10-22T06:26:08;10.90;99.90
39219;DHT22;24934;52.752;6.964;2022-10-22T06:28:34;10.90;99.90
39219;DHT22;24934;52.752;6.964;2022-10-22T06:31:01;10.90;99.90
39219;DHT22;24934;52.752;6.964;2022-10-22T06:33:28;10.90;99.90
39219;DHT22;24934;52.752;6.964;2022-10-22T06:35:53;11.00;99.90
39219;DHT22;24934;52.752;6.964;2022-10-22T06:38:19;11.00;99.90
39219;DHT22;24934;52.752;6.964;2022-10-22T06:40:45;11.00;99.90
39219;DHT22;24934;52.752;6.964;2022-10-22T06:43:13;11.10;99.90
39219;DHT22;24934;52.752;6.964;2022-10-22T06:45:39;11.20;99.90
39219;DHT22;24934;52.752;6.964;2022-10-22T06:48:05;11.30;99.90
39219;DHT22;24934;52.752;6.964;2022-10-22T06:50:33;11.30;99.90
39219;DHT22;24934;52.752;6.964;2022-10-22T06:52:59;11.40;99.90
39219;DHT22;24934;52.752;6.964;2022-10-22T06:55:24;11.50;99.90
39219;DHT22;24934;52.752;6.964;2022-10-22T06:57:50;11.50;99.90
39219;DHT22;24934;52.752;6.964;2022-10-22T07:00:16;11.60;99.90
39219;DHT22;24934;52.752;6.964;2022-10-22T07:02:41;11.60;99.90
39219;DHT22;24934;52.752;6.964;2022-10-22T07:05:07;11.60;99.90
39219;DHT22;24934;52.752;6.964;2022-10-22T07:07:33;11.70;99.90
39219;DHT22;24934;52.752;6.964;2022-10-22T07:09:58;11.80;99.90
39219;DHT22;24934;52.752;6.964;2022-10-22T07:12:24;11.90;99.90
39219;DHT22;24934;52.752;6.964;2022-10-22T07:14:50;12.00;99.90
39219;DHT22;24934;52.752;6.964;2022-10-22T07:17:15;12.10;99.90
39219;DHT22;24934;52.752;6.964;2022-10-22T07:19:41;12.20;99.90
39219;DHT22;24934;52.752;6.964;2022-10-22T07:22:06;12.40;99.90
39219;DHT22;24934;52.752;6.964;2022-10-22T07:24:32;12.60;99.90
39219;DHT22;24934;52.752;6.964;2022-10-22T07:26:58;12.80;99.90
39219;DHT22;24934;52.752;6.964;2022-10-22T07:29:23;12.90;99.90
39219;DHT22;24934;52.752;6.964;2022-10-22T07:31:49;13.00;99.90
39219;DHT22;24934;52.752;6.964;2022-10-22T07:34:14;13.10;99.90
39219;DHT22;24934;52.752;6.964;2022-10-22T07:36:40;13.40;99.90
39219;DHT22;24934;52.752;6.964;2022-10-22T07:39:05;13.80;99.90
39219;DHT22;24934;52.752;6.964;2022-10-22T07:41:31;14.30;99.90
39219;DHT22;24934;52.752;6.964;2022-10-22T07:43:57;14.70;99.90
39219;DHT22;24934;52.752;6.964;2022-10-22T07:46:23;15.00;99.90
39219;DHT22;24934;52.752;6.964;2022-10-22T07:48:49;15.40;99.90
39219;DHT22;24934;52.752;6.964;2022-10-22T07:51:15;15.80;99.90
39219;DHT22;24934;52.752;6.964;2022-10-22T07:53:41;16.10;99.90
39219;DHT22;24934;52.752;6.964;2022-10-22T07:56:07;15.90;99.90
39219;DHT22;24934;52.752;6.964;2022-10-22T07:58:32;15.90;99.90
39219;DHT22;24934;52.752;6.964;2022-10-22T08:00:59;15.70;99.90
39219;DHT22;24934;52.752;6.964;2022-10-22T08:03:25;15.70;99.90
39219;DHT22;24934;52.752;6.964;2022-10-22T08:05:51;15.60;99.90
39219;DHT22;24934;52.752;6.964;2022-10-22T08:08:18;15.50;99.90
39219;DHT22;24934;52.752;6.964;2022-10-22T08:10:46;15.50;99.90
39219;DHT22;24934;52.752;6.964;2022-10-22T08:13:12;15.50;99.90
39219;DHT22;24934;52.752;6.964;2022-10-22T08:15:38;15.40;99.90
39219;DHT22;24934;52.752;6.964;2022-10-22T08:18:04;15.30;99.90
39219;DHT22;24934;52.752;6.964;2022-10-22T08:20:29;15.20;99.90
39219;DHT22;24934;52.752;6.964;2022-10-22T08:22:55;15.00;99.90
39219;DHT22;24934;52.752;6.964;2022-10-22T08:25:21;14.80;99.90
39219;DHT22;24934;52.752;6.964;2022-10-22T08:27:46;14.80;99.90
39219;DHT22;24934;52.752;6.964;2022-10-22T08:30:13;14.70;99.90
39219;DHT22;24934;52.752;6.964;2022-10-22T08:32:39;14.70;99.90
39219;DHT22;24934;52.752;6.964;2022-10-22T08:35:05;14.70;99.90
39219;DHT22;24934;52.752;6.964;2022-10-22T08:37:30;14.70;99.90
39219;DHT22;24934;52.752;6.964;2022-10-22T08:39:56;14.70;99.90
39219;DHT22;24934;52.752;6.964;2022-10-22T08:42:36;14.90;99.90
39219;DHT22;24934;52.752;6.964;2022-10-22T08:50:48;15.30;99.90
39219;DHT22;24934;52.752;6.964;2022-10-22T08:53:24;15.50;99.90
39219;DHT22;24934;52.752;6.964;2022-10-22T08:55:53;15.70;99.90
39219;DHT22;24934;52.752;6.964;2022-10-22T08:58:34;16.00;99.90
39219;DHT22;24934;52.752;6.964;2022-10-22T09:01:13;16.20;99.90
39219;DHT22;24934;52.752;6.964;2022-10-22T09:03:51;16.20;99.90
39219;DHT22;24934;52.752;6.964;2022-10-22T09:06:22;16.30;99.90
39219;DHT22;24934;52.752;6.964;2022-10-22T09:08:49;16.50;99.90
39219;DHT22;24934;52.752;6.964;2022-10-22T09:11:32;16.50;99.90
39219;DHT22;24934;52.752;6.964;2022-10-22T09:13:59;16.70;99.90
39219;DHT22;24934;52.752;6.964;2022-10-22T09:24:51;18.10;99.90
39219;DHT22;24934;52.752;6.964;2022-10-22T09:27:24;18.50;99.90
39219;DHT22;24934;52.752;6.964;2022-10-22T09:29:50;18.50;99.90
39219;DHT22;24934;52.752;6.964;2022-10-22T09:32:16;18.40;99.90
39219;DHT22;24934;52.752;6.964;2022-10-22T09:34:46;18.40;99.90
39219;DHT22;24934;52.752;6.964;2022-10-22T09:37:16;18.30;99.90
39219;DHT22;24934;52.752;6.964;2022-10-22T09:39:51;18.20;99.90
39219;DHT22;24934;52.752;6.964;2022-10-22T09:42:18;17.90;99.90
39219;DHT22;24934;52.752;6.964;2022-10-22T09:44:52;17.90;99.90
39219;DHT22;24934;52.752;6.964;2022-10-22T09:47:37;17.60;99.90
39219;DHT22;24934;52.752;6.964;2022-10-22T09:52:58;17.00;99.90
39219;DHT22;24934;52.752;6.964;2022-10-22T09:55:25;16.80;99.90
39219;DHT22;24934;52.752;6.964;2022-10-22T09:57:59;16.60;99.90
39219;DHT22;24934;52.752;6.964;2022-10-22T10:00:25;16.50;99.90
39219;DHT22;24934;52.752;6.964;2022-10-22T10:02:58;16.50;99.90
39219;DHT22;24934;52.752;6.964;2022-10-22T10:05:30;16.30;99.90
39219;DHT22;24934;52.752;6.964;2022-10-22T10:07:56;16.30;99.90
39219;DHT22;24934;52.752;6.964;2022-10-22T10:10:45;16.20;99.90
39219;DHT22;24934;52.752;6.964;2022-10-22T10:15:55;16.10;99.90
39219;DHT22;24934;52.752;6.964;2022-10-22T10:18:52;16.20;99.90
39219;DHT22;24934;52.752;6.964;2022-10-22T10:24:23;16.20;99.90
39219;DHT22;24934;52.752;6.964;2022-10-22T10:29:53;16.00;99.90
39219;DHT22;24934;52.752;6.964;2022-10-22T10:32:29;15.90;99.90
39219;DHT22;24934;52.752;6.964;2022-10-22T10:35:23;15.80;99.90
39219;DHT22;24934;52.752;6.964;2022-10-22T10:46:14;15.80;99.90
39219;DHT22;24934;52.752;6.964;2022-10-22T10:48:58;15.90;99.90
39219;DHT22;24934;52.752;6.964;2022-10-22T11:00:00;16.10;99.90
39219;DHT22;24934;52.752;6.964;2022-10-22T11:02:55;16.10;99.90
39219;DHT22;24934;52.752;6.964;2022-10-22T11:05:38;16.20;99.90
39219;DHT22;24934;52.752;6.964;2022-10-22T11:13:30;16.30;99.90
39219;DHT22;24934;52.752;6.964;2022-10-22T11:16:05;16.30;99.90
39219;DHT22;24934;52.752;6.964;2022-10-22T11:18:42;16.30;99.90
39219;DHT22;24934;52.752;6.964;2022-10-22T11:21:29;16.20;99.90
39219;DHT22;24934;52.752;6.964;2022-10-22T11:27:06;15.90;99.90
39219;DHT22;24934;52.752;6.964;2022-10-22T11:29:38;15.80;99.90
39219;DHT22;24934;52.752;6.964;2022-10-22T11:32:12;15.70;99.90
39219;DHT22;24934;52.752;6.964;2022-10-22T11:34:46;15.60;99.90
39219;DHT22;24934;52.752;6.964;2022-10-22T11:37:14;15.60;99.90
39219;DHT22;24934;52.752;6.964;2022-10-22T11:39:54;15.60;99.90
39219;DHT22;24934;52.752;6.964;2022-10-22T11:42:31;15.70;99.90
39219;DHT22;24934;52.752;6.964;2022-10-22T11:45:27;15.70;99.90
39219;DHT22;24934;52.752;6.964;2022-10-22T11:53:19;16.10;99.90
39219;DHT22;24934;52.752;6.964;2022-10-22T11:55:47;16.30;99.90
39219;DHT22;24934;52.752;6.964;2022-10-22T12:08:53;16.10;99.90
39219;DHT22;24934;52.752;6.964;2022-10-22T12:11:38;16.00;99.90
39219;DHT22;24934;52.752;6.964;2022-10-22T12:19:38;16.00;99.90
39219;DHT22;24934;52.752;6.964;2022-10-22T12:25:21;16.40;99.90
39219;DHT22;24934;52.752;6.964;2022-10-22T12:27:55;16.60;99.90
39219;DHT22;24934;52.752;6.964;2022-10-22T12:30:24;16.70;99.90
39219;DHT22;24934;52.752;6.964;2022-10-22T12:32:58;16.80;99.90
39219;DHT22;24934;52.752;6.964;2022-10-22T12:35:27;16.90;99.90
39219;DHT22;24934;52.752;6.964;2022-10-22T12:37:55;17.00;99.90
39219;DHT22;24934;52.752;6.964;2022-10-22T12:40:32;16.90;99.90
39219;DHT22;24934;52.752;6.964;2022-10-22T12:43:00;16.90;99.90
39219;DHT22;24934;52.752;6.964;2022-10-22T12:45:31;16.90;99.90
39219;DHT22;24934;52.752;6.964;2022-10-22T12:47:58;16.90;99.90
39219;DHT22;24934;52.752;6.964;2022-10-22T12:50:41;17.00;99.90
39219;DHT22;24934;52.752;6.964;2022-10-22T12:54:02;17.10;99.90
39219;DHT22;24934;52.752;6.964;2022-10-22T12:56:12;17.10;99.90
39219;DHT22;24934;52.752;6.964;2022-10-22T12:58:50;17.00;99.90
39219;DHT22;24934;52.752;6.964;2022-10-22T13:01:17;16.90;99.90
39219;DHT22;24934;52.752;6.964;2022-10-22T13:03:48;16.80;99.90
39219;DHT22;24934;52.752;6.964;2022-10-22T13:09:11;16.80;99.90
39219;DHT22;24934;52.752;6.964;2022-10-22T13:11:40;16.80;99.90
39219;DHT22;24934;52.752;6.964;2022-10-22T13:17:02;16.80;99.90
39219;DHT22;24934;52.752;6.964;2022-10-22T13:19:45;16.80;99.90
39219;DHT22;24934;52.752;6.964;2022-10-22T13:22:33;16.80;99.90
39219;DHT22;24934;52.752;6.964;2022-10-22T13:27:49;16.90;99.90
39219;DHT22;24934;52.752;6.964;2022-10-22T13:30:24;16.80;99.90
39219;DHT22;24934;52.752;6.964;2022-10-22T13:32:59;16.80;99.90
39219;DHT22;24934;52.752;6.964;2022-10-22T13:35:29;16.80;99.90
39219;DHT22;24934;52.752;6.964;2022-10-22T13:37:56;16.80;99.90
39219;DHT22;24934;52.752;6.964;2022-10-22T13:40:22;16.90;99.90
39219;DHT22;24934;52.752;6.964;2022-10-22T13:42:48;16.90;99.90
39219;DHT22;24934;52.752;6.964;2022-10-22T13:45:14;16.80;99.90
39219;DHT22;24934;52.752;6.964;2022-10-22T13:47:41;16.80;99.90
39219;DHT22;24934;52.752;6.964;2022-10-22T13:50:13;16.80;99.90
39219;DHT22;24934;52.752;6.964;2022-10-22T13:53:02;16.90;99.90
39219;DHT22;24934;52.752;6.964;2022-10-22T13:55:28;16.90;99.90
39219;DHT22;24934;52.752;6.964;2022-10-22T14:00:22;16.80;99.90
39219;DHT22;24934;52.752;6.964;2022-10-22T14:02:52;16.80;99.90
39219;DHT22;24934;52.752;6.964;2022-10-22T14:05:19;16.80;99.90
39219;DHT22;24934;52.752;6.964;2022-10-22T14:07:45;16.80;99.90
39219;DHT22;24934;52.752;6.964;2022-10-22T14:10:22;16.80;99.90
39219;DHT22;24934;52.752;6.964;2022-10-22T14:12:49;16.90;99.90
39219;DHT22;24934;52.752;6.964;2022-10-22T14:15:16;16.80;99.90
39219;DHT22;24934;52.752;6.964;2022-10-22T14:17:45;16.70;99.90
39219;DHT22;24934;52.752;6.964;2022-10-22T14:20:20;16.70;99.90
39219;DHT22;24934;52.752;6.964;2022-10-22T14:22:47;16.70;99.90
39219;DHT22;24934;52.752;6.964;2022-10-22T14:25:15;16.70;99.90
39219;DHT22;24934;52.752;6.964;2022-10-22T14:27:41;16.70;99.90
39219;DHT22;24934;52.752;6.964;2022-10-22T14:30:08;16.90;99.90
39219;DHT22;24934;52.752;6.964;2022-10-22T14:32:33;17.10;99.90
39219;DHT22;24934;52.752;6.964;2022-10-22T14:34:59;17.40;99.90
39219;DHT22;24934;52.752;6.964;2022-10-22T14:37:25;17.50;99.90
39219;DHT22;24934;52.752;6.964;2022-10-22T14:39:51;17.50;99.90
39219;DHT22;24934;52.752;6.964;2022-10-22T14:42:24;17.70;99.90
39219;DHT22;24934;52.752;6.964;2022-10-22T14:44:50;17.80;99.90
39219;DHT22;24934;52.752;6.964;2022-10-22T14:47:15;17.90;99.90
39219;DHT22;24934;52.752;6.964;2022-10-22T14:49:41;18.00;99.90
39219;DHT22;24934;52.752;6.964;2022-10-22T14:52:07;18.00;99.90
39219;DHT22;24934;52.752;6.964;2022-10-22T14:54:32;17.90;99.90
39219;DHT22;24934;52.752;6.964;2022-10-22T14:57:00;17.90;99.90
39219;DHT22;24934;52.752;6.964;2022-10-22T14:59:26;17.90;99.90
39219;DHT22;24934;52.752;6.964;2022-10-22T15:01:52;17.80;99.90
39219;DHT22;24934;52.752;6.964;2022-10-22T15:04:17;17.60;99.90
39219;DHT22;24934;52.752;6.964;2022-10-22T15:06:43;17.50;99.90
39219;DHT22;24934;52.752;6.964;2022-10-22T15:09:08;17.50;99.90
39219;DHT22;24934;52.752;6.964;2022-10-22T15:11:34;17.40;99.90
39219;DHT22;24934;52.752;6.964;2022-10-22T15:14:00;17.30;99.90
39219;DHT22;24934;52.752;6.964;2022-10-22T15:16:25;17.20;99.90
39219;DHT22;24934;52.752;6.964;2022-10-22T15:18:51;17.10;99.90
39219;DHT22;24934;52.752;6.964;2022-10-22T15:21:19;17.00;99.90
39219;DHT22;24934;52.752;6.964;2022-10-22T15:23:45;16.90;99.90
39219;DHT22;24934;52.752;6.964;2022-10-22T15:26:12;16.80;99.90
39219;DHT22;24934;52.752;6.964;2022-10-22T15:28:38;16.70;99.90
39219;DHT22;24934;52.752;6.964;2022-10-22T15:31:05;16.50;99.90
39219;DHT22;24934;52.752;6.964;2022-10-22T15:33:31;16.40;99.90
39219;DHT22;24934;52.752;6.964;2022-10-22T15:35:57;16.30;99.90
39219;DHT22;24934;52.752;6.964;2022-10-22T15:38:27;16.10;99.90
39219;DHT22;24934;52.752;6.964;2022-10-22T15:41:04;15.90;99.90
39219;DHT22;24934;52.752;6.964;2022-10-22T15:43:30;15.80;99.90
39219;DHT22;24934;52.752;6.964;2022-10-22T15:46:11;15.60;99.90
39219;DHT22;24934;52.752;6.964;2022-10-22T15:48:37;15.50;99.90
39219;DHT22;24934;52.752;6.964;2022-10-22T15:51:08;15.30;99.90
39219;DHT22;24934;52.752;6.964;2022-10-22T15:53:34;15.20;99.90
39219;DHT22;24934;52.752;6.964;2022-10-22T15:55:59;15.00;99.90
39219;DHT22;24934;52.752;6.964;2022-10-22T15:58:25;14.90;99.90
39219;DHT22;24934;52.752;6.964;2022-10-22T16:00:51;14.70;99.90
39219;DHT22;24934;52.752;6.964;2022-10-22T16:03:16;14.60;99.90
39219;DHT22;24934;52.752;6.964;2022-10-22T16:05:52;14.50;99.90
39219;DHT22;24934;52.752;6.964;2022-10-22T16:08:19;14.30;99.90
39219;DHT22;24934;52.752;6.964;2022-10-22T16:10:45;14.20;99.90
39219;DHT22;24934;52.752;6.964;2022-10-22T16:13:13;14.00;99.90
39219;DHT22;24934;52.752;6.964;2022-10-22T16:15:38;13.90;99.90
39219;DHT22;24934;52.752;6.964;2022-10-22T16:18:04;13.70;99.90
39219;DHT22;24934;52.752;6.964;2022-10-22T16:20:29;13.60;99.90
39219;DHT22;24934;52.752;6.964;2022-10-22T16:22:55;13.40;99.90
39219;DHT22;24934;52.752;6.964;2022-10-22T16:25:20;13.20;99.90
39219;DHT22;24934;52.752;6.964;2022-10-22T16:27:50;13.10;99.90
39219;DHT22;24934;52.752;6.964;2022-10-22T16:30:16;13.00;99.90
39219;DHT22;24934;52.752;6.964;2022-10-22T16:32:42;12.80;99.90
39219;DHT22;24934;52.752;6.964;2022-10-22T16:35:08;12.70;99.90
39219;DHT22;24934;52.752;6.964;2022-10-22T16:37:33;12.60;99.90
39219;DHT22;24934;52.752;6.964;2022-10-22T16:39:59;12.50;99.90
39219;DHT22;24934;52.752;6.964;2022-10-22T16:42:24;12.30;99.90
39219;DHT22;24934;52.752;6.964;2022-10-22T16:44:50;12.20;99.90
39219;DHT22;24934;52.752;6.964;2022-10-22T16:47:17;12.10;99.90
39219;DHT22;24934;52.752;6.964;2022-10-22T16:49:42;12.00;99.90
39219;DHT22;24934;52.752;6.964;2022-10-22T16:52:08;11.90;99.90
39219;DHT22;24934;52.752;6.964;2022-10-22T16:54:33;11.90;99.90
39219;DHT22;24934;52.752;6.964;2022-10-22T16:56:59;11.80;99.90
39219;DHT22;24934;52.752;6.964;2022-10-22T16:59:24;11.70;99.90
39219;DHT22;24934;52.752;6.964;2022-10-22T17:01:50;11.70;99.90
39219;DHT22;24934;52.752;6.964;2022-10-22T17:04:16;11.60;99.90
39219;DHT22;24934;52.752;6.964;2022-10-22T17:06:42;11.60;99.90
39219;DHT22;24934;52.752;6.964;2022-10-22T17:09:08;11.60;99.90
39219;DHT22;24934;52.752;6.964;2022-10-22T17:11:33;11.50;99.90
39219;DHT22;24934;52.752;6.964;2022-10-22T17:14:00;11.50;99.90
39219;DHT22;24934;52.752;6.964;2022-10-22T17:16:26;11.50;99.90
39219;DHT22;24934;52.752;6.964;2022-10-22T17:18:53;11.50;99.90
39219;DHT22;24934;52.752;6.964;2022-10-22T17:21:19;11.50;99.90
39219;DHT22;24934;52.752;6.964;2022-10-22T17:23:46;11.50;99.90
39219;DHT22;24934;52.752;6.964;2022-10-22T17:26:17;11.40;99.90
39219;DHT22;24934;52.752;6.964;2022-10-22T17:28:43;11.40;99.90
39219;DHT22;24934;52.752;6.964;2022-10-22T17:31:21;11.40;99.90
39219;DHT22;24934;52.752;6.964;2022-10-22T17:33:48;11.40;99.90